createdAt,value
2022-11-02T00:01:53.459Z,100885.78
2022-11-02T00:04:21.967Z,100885.00
2022-11-02T00:06:50.290Z,100883.41
2022-11-02T00:09:18.628Z,100891.50
2022-11-02T00:11:47.361Z,100890.84
2022-11-02T00:14:17.153Z,100885.69
2022-11-02T00:16:45.441Z,100879.72
2022-11-02T00:19:13.885Z,100885.16
2022-11-02T00:21:42.472Z,100884.41
2022-11-02T00:24:12.994Z,100888.09
2022-11-02T00:26:41.699Z,100891.19
2022-11-02T00:29:10.394Z,100900.22
2022-11-02T00:31:40.100Z,100899.75
2022-11-02T00:34:08.692Z,100901.81
2022-11-02T00:36:37.078Z,100908.19
2022-11-02T00:39:05.595Z,100890.81
2022-11-02T00:41:34.473Z,100895.56
2022-11-02T00:44:02.924Z,100888.63
2022-11-02T00:46:34.193Z,100887.94
2022-11-02T00:49:04.272Z,100886.22
2022-11-02T00:51:33.784Z,100891.75
2022-11-02T00:54:02.357Z,100886.44
2022-11-02T00:56:31.002Z,100884.63
2022-11-02T00:58:59.581Z,100881.88
2022-11-02T01:01:28.024Z,100889.75
2022-11-02T01:03:57.614Z,100882.62
2022-11-02T01:06:27.510Z,100880.81
2022-11-02T01:08:59.730Z,100882.62
2022-11-02T01:11:28.478Z,100881.69
2022-11-02T01:13:56.852Z,100884.25
2022-11-02T01:16:25.245Z,100880.75
2022-11-02T01:18:54.258Z,100882.53
2022-11-02T01:21:22.953Z,100872.94
2022-11-02T01:23:52.593Z,100881.75
2022-11-02T01:26:22.186Z,100881.88
2022-11-02T01:28:50.413Z,100872.16
2022-11-02T01:31:18.696Z,100874.84
2022-11-02T01:33:48.821Z,100882.81
2022-11-02T01:38:56.961Z,100881.22
2022-11-02T01:41:25.443Z,100880.34
2022-11-02T01:43:58.892Z,100878.56
2022-11-02T01:46:36.787Z,100876.00
2022-11-02T01:49:09.432Z,100887.50
2022-11-02T01:51:41.234Z,100874.28
2022-11-02T01:54:15.257Z,100883.22
2022-11-02T01:56:47.161Z,100877.78
2022-11-02T01:59:20.900Z,100877.97
2022-11-02T02:01:50.418Z,100873.50
2022-11-02T02:04:21.984Z,100873.44
2022-11-02T02:06:51.347Z,100863.63
2022-11-02T02:09:22.707Z,100866.28
2022-11-02T02:11:51.558Z,100864.50
2022-11-02T02:14:21.967Z,100869.59
2022-11-02T02:17:13.013Z,100863.34
2022-11-02T02:19:48.876Z,100865.72
2022-11-02T02:22:34.779Z,100860.41
2022-11-02T02:25:24.471Z,100857.53
2022-11-02T02:28:07.817Z,100851.25
2022-11-02T02:30:41.174Z,100853.59
2022-11-02T02:33:14.492Z,100853.53
2022-11-02T02:35:46.523Z,100855.25
2022-11-02T02:38:20.360Z,100856.00
2022-11-02T02:40:54.195Z,100850.78
2022-11-02T02:43:35.048Z,100858.06
2022-11-02T02:46:07.981Z,100852.84
2022-11-02T02:48:38.354Z,100852.84
2022-11-02T02:51:12.010Z,100847.72
2022-11-02T02:53:44.799Z,100844.31
2022-11-02T02:56:19.330Z,100845.19
2022-11-02T02:58:54.063Z,100839.94
2022-11-02T03:01:23.660Z,100840.81
2022-11-02T03:03:52.674Z,100830.34
2022-11-02T03:06:25.395Z,100835.00
2022-11-02T03:09:03.568Z,100841.56
2022-11-02T03:11:33.824Z,100840.91
2022-11-02T03:14:12.899Z,100842.16
2022-11-02T03:19:39.301Z,100840.75
2022-11-02T03:22:13.677Z,100840.91
2022-11-02T03:24:48.692Z,100833.97
2022-11-02T03:27:21.361Z,100826.31
2022-11-02T03:29:57.343Z,100828.28
2022-11-02T03:32:33.929Z,100824.00
2022-11-02T03:35:07.488Z,100821.62
2022-11-02T03:37:41.957Z,100819.16
2022-11-02T03:40:15.719Z,100817.34
2022-11-02T03:42:45.279Z,100830.75
2022-11-02T03:45:19.110Z,100820.09
2022-11-02T03:47:50.721Z,100819.06
2022-11-02T03:50:23.169Z,100823.53
2022-11-02T03:52:57.549Z,100827.97
2022-11-02T03:55:31.971Z,100828.19
2022-11-02T03:58:00.773Z,100834.44
2022-11-02T04:00:35.169Z,100835.41
2022-11-02T04:03:08.039Z,100830.19
2022-11-02T04:05:37.762Z,100826.63
2022-11-02T04:08:24.379Z,100832.16
2022-11-02T04:11:11.997Z,100828.06
2022-11-02T04:13:58.077Z,100828.34
2022-11-02T04:16:28.556Z,100837.72
2022-11-02T04:19:15.088Z,100834.84
2022-11-02T04:22:04.092Z,100837.75
2022-11-02T04:24:50.893Z,100832.53
2022-11-02T04:27:21.091Z,100832.53
2022-11-02T04:29:50.242Z,100838.72
2022-11-02T04:32:40.868Z,100822.66
2022-11-02T04:35:09.941Z,100833.09
2022-11-02T04:37:58.002Z,100837.50
2022-11-02T04:40:27.326Z,100828.59
2022-11-02T04:42:56.422Z,100830.97
2022-11-02T04:45:24.807Z,100832.59
2022-11-02T04:48:01.886Z,100830.59
2022-11-02T04:50:31.224Z,100834.72
2022-11-02T04:53:00.717Z,100822.25
2022-11-02T04:55:29.888Z,100814.19
2022-11-02T04:57:59.114Z,100823.87
2022-11-02T05:00:28.022Z,100822.06
2022-11-02T05:02:58.037Z,100817.59
2022-11-02T05:05:26.797Z,100817.59
2022-11-02T05:07:56.943Z,100815.81
2022-11-02T05:10:25.233Z,100816.66
2022-11-02T05:12:58.405Z,100811.44
2022-11-02T05:15:27.814Z,100820.25
2022-11-02T05:17:57.555Z,100817.69
2022-11-02T05:20:27.658Z,100816.09
2022-11-02T05:22:56.180Z,100820.66
2022-11-02T05:25:24.881Z,100819.81
2022-11-02T05:27:53.446Z,100813.69
2022-11-02T05:30:22.485Z,100824.31
2022-11-02T05:32:51.077Z,100820.91
2022-11-02T05:35:21.839Z,100824.44
2022-11-02T05:37:50.527Z,100828.03
2022-11-02T05:40:19.634Z,100829.75
2022-11-02T05:42:48.627Z,100828.88
2022-11-02T05:45:20.594Z,100835.06
2022-11-02T05:47:52.806Z,100830.69
2022-11-02T05:50:22.793Z,100825.28
2022-11-02T05:52:53.551Z,100826.81
2022-11-02T05:55:22.050Z,100825.88
2022-11-02T05:57:53.485Z,100825.03
2022-11-02T06:00:22.794Z,100828.44
2022-11-02T06:02:57.327Z,100830.03
2022-11-02T06:05:27.468Z,100834.34
2022-11-02T06:07:59.691Z,100828.06
2022-11-02T06:10:28.552Z,100838.53
2022-11-02T06:12:57.808Z,100840.22
2022-11-02T06:15:26.061Z,100850.66
2022-11-02T06:17:54.553Z,100850.50
2022-11-02T06:20:23.667Z,100856.59
2022-11-02T06:22:53.324Z,100861.81
2022-11-02T06:25:22.164Z,100863.50
2022-11-02T06:27:53.062Z,100861.59
2022-11-02T06:30:21.605Z,100865.03
2022-11-02T06:32:50.297Z,100870.28
2022-11-02T06:35:20.520Z,100859.44
2022-11-02T06:37:49.098Z,100863.81
2022-11-02T06:40:21.387Z,100865.50
2022-11-02T06:43:15.364Z,100866.09
2022-11-02T06:45:45.074Z,100874.63
2022-11-02T06:48:13.642Z,100878.75
2022-11-02T06:50:41.927Z,100873.97
2022-11-02T06:53:10.201Z,100883.19
2022-11-02T06:55:40.227Z,100877.97
2022-11-02T06:58:08.706Z,100883.41
2022-11-02T07:00:37.444Z,100883.38
2022-11-02T07:03:08.095Z,100887.19
2022-11-02T07:05:37.054Z,100890.59
2022-11-02T07:08:06.757Z,100896.81
2022-11-02T07:10:36.308Z,100895.06
2022-11-02T07:13:06.290Z,100899.50
2022-11-02T07:15:35.001Z,100899.53
2022-11-02T07:18:03.432Z,100901.19
2022-11-02T07:20:31.632Z,100910.06
2022-11-02T07:23:01.778Z,100910.00
2022-11-02T07:25:32.197Z,100912.78
2022-11-02T07:28:01.581Z,100921.78
2022-11-02T07:30:32.826Z,100918.56
2022-11-02T07:33:01.555Z,100920.81
2022-11-02T07:35:30.146Z,100919.22
2022-11-02T07:37:59.453Z,100919.53
2022-11-02T07:40:28.943Z,100919.41
2022-11-02T07:42:57.483Z,100924.63
2022-11-02T07:45:31.872Z,100932.41
2022-11-02T07:48:00.450Z,100934.19
2022-11-02T07:50:29.559Z,100941.13
2022-11-02T07:53:00.300Z,100948.13
2022-11-02T07:55:30.460Z,100944.66
2022-11-02T07:58:00.840Z,100945.56
2022-11-02T08:00:32.961Z,100939.44
2022-11-02T08:03:03.741Z,100933.16
2022-11-02T08:05:34.329Z,100939.88
2022-11-02T08:08:05.431Z,100936.06
2022-11-02T08:10:37.445Z,100928.66
2022-11-02T08:13:08.740Z,100930.53
2022-11-02T08:15:38.968Z,100927.34
2022-11-02T08:18:10.470Z,100933.69
2022-11-02T08:20:39.315Z,100933.94
2022-11-02T08:23:08.632Z,100930.88
2022-11-02T08:25:39.334Z,100922.38
2022-11-02T08:28:09.616Z,100926.88
2022-11-02T08:30:41.785Z,100926.41
2022-11-02T08:33:15.638Z,100926.62
2022-11-02T08:35:45.576Z,100927.38
2022-11-02T08:38:14.368Z,100933.94
2022-11-02T08:40:43.157Z,100924.94
2022-11-02T08:43:13.288Z,100924.44
2022-11-02T08:48:35.435Z,100923.94
2022-11-02T08:51:05.703Z,100933.66
2022-11-02T08:53:34.145Z,100918.00
2022-11-02T08:56:02.473Z,100926.81
2022-11-02T08:58:31.041Z,100931.59
2022-11-02T09:01:00.782Z,100931.78
2022-11-02T09:03:29.139Z,100924.31
2022-11-02T09:05:59.792Z,100936.25
2022-11-02T09:08:28.999Z,100935.22
2022-11-02T09:11:01.329Z,100932.09
2022-11-02T09:13:30.029Z,100935.59
2022-11-02T09:16:01.235Z,100929.72
2022-11-02T09:18:29.935Z,100935.09
2022-11-02T09:21:02.386Z,100948.63
2022-11-02T09:23:30.731Z,100954.50
2022-11-02T09:25:59.532Z,100946.88
2022-11-02T09:28:27.800Z,100946.66
2022-11-02T09:30:56.094Z,100946.00
2022-11-02T09:33:26.130Z,100954.38
2022-11-02T09:35:54.926Z,100950.06
2022-11-02T09:38:23.279Z,100951.66
2022-11-02T09:41:02.307Z,100952.84
2022-11-02T09:43:40.069Z,100959.06
2022-11-02T09:46:11.925Z,100958.78
2022-11-02T09:48:44.547Z,100975.94
2022-11-02T09:51:16.580Z,100974.94
2022-11-02T09:53:56.554Z,100972.69
2022-11-02T09:56:26.059Z,100977.09
2022-11-02T09:59:01.512Z,100979.72
2022-11-02T10:01:40.350Z,100984.31
2022-11-02T10:04:40.448Z,100975.81
2022-11-02T10:07:24.944Z,100968.16
2022-11-02T10:10:01.393Z,100978.56
2022-11-02T10:12:38.350Z,100979.03
2022-11-02T10:15:12.014Z,100976.84
2022-11-02T10:17:42.421Z,100985.72
2022-11-02T10:20:23.802Z,100991.69
2022-11-02T10:22:51.988Z,100980.66
2022-11-02T10:25:20.787Z,100987.91
2022-11-02T10:27:54.787Z,100975.44
2022-11-02T10:30:23.933Z,100989.16
2022-11-02T10:32:55.599Z,100980.41
2022-11-02T10:35:45.703Z,100982.31
2022-11-02T10:38:34.951Z,100979.25
2022-11-02T10:41:18.674Z,100994.13
2022-11-02T10:44:04.478Z,100982.19
2022-11-02T10:46:44.962Z,100993.13
2022-11-02T10:49:20.756Z,100993.00
2022-11-02T10:51:51.040Z,100996.59
2022-11-02T10:54:24.126Z,100999.63
2022-11-02T10:56:59.571Z,100998.59
2022-11-02T10:59:28.224Z,101000.16
2022-11-02T11:02:13.410Z,101012.38
2022-11-02T11:04:43.337Z,101002.28
2022-11-02T11:07:18.803Z,101003.69
2022-11-02T11:09:51.884Z,101014.22
2022-11-02T11:12:23.511Z,101002.59
2022-11-02T11:20:36.183Z,101017.06
2022-11-02T11:23:19.563Z,101013.37
2022-11-02T11:26:00.096Z,101008.69
2022-11-02T11:28:31.146Z,101004.28
2022-11-02T11:31:07.702Z,101007.66
2022-11-02T11:33:45.379Z,100999.13
2022-11-02T11:39:02.081Z,100997.69
2022-11-02T11:41:32.468Z,101007.38
2022-11-02T11:44:02.666Z,101002.75
2022-11-02T11:46:41.320Z,101005.31
2022-11-02T11:49:24.836Z,101005.56
2022-11-02T11:52:05.320Z,100994.62
2022-11-02T11:54:35.043Z,100998.91
2022-11-02T11:57:24.915Z,101000.75
2022-11-02T11:59:55.432Z,100987.38
2022-11-02T12:02:27.313Z,100997.47
2022-11-02T12:05:04.224Z,100992.06
2022-11-02T12:08:03.157Z,101000.63
2022-11-02T12:11:08.083Z,100984.59
2022-11-02T12:13:57.640Z,100987.84
2022-11-02T12:16:35.807Z,100994.13
2022-11-02T12:19:18.875Z,100994.50
2022-11-02T12:21:59.847Z,100985.56
2022-11-02T12:24:40.101Z,100989.37
2022-11-02T12:27:24.253Z,100978.75
2022-11-02T12:30:04.205Z,100989.19
2022-11-02T12:33:06.652Z,100984.06
2022-11-02T12:35:51.934Z,100979.13
2022-11-02T12:38:38.821Z,100981.47
2022-11-02T12:41:12.279Z,100978.66
2022-11-02T12:43:45.169Z,100977.34
2022-11-02T12:46:39.056Z,100987.56
2022-11-02T12:49:28.055Z,100984.75
2022-11-02T12:52:08.402Z,100987.53
2022-11-02T12:54:44.497Z,100987.56
2022-11-02T12:57:16.565Z,100991.84
2022-11-02T12:59:48.796Z,100985.00
2022-11-02T13:02:25.429Z,100992.66
2022-11-02T13:04:59.499Z,101005.28
2022-11-02T13:07:32.599Z,101006.00
2022-11-02T13:10:05.832Z,101015.50
2022-11-02T13:12:38.735Z,101007.69
2022-11-02T13:15:15.185Z,100997.47
2022-11-02T13:20:19.446Z,100999.19
2022-11-02T13:22:55.318Z,101001.91
2022-11-02T13:25:29.684Z,100989.25
2022-11-02T13:28:05.620Z,100985.44
2022-11-02T13:30:36.855Z,100987.97
2022-11-02T13:33:12.201Z,101004.59
2022-11-02T13:35:41.387Z,101000.66
2022-11-02T13:38:25.739Z,101006.69
2022-11-02T13:41:17.363Z,100999.81
2022-11-02T13:44:23.070Z,100993.66
2022-11-02T13:47:13.721Z,100992.66
2022-11-02T13:49:44.674Z,101003.16
2022-11-02T13:52:16.914Z,101006.13
2022-11-02T13:54:49.162Z,101008.12
2022-11-02T13:57:34.224Z,101020.28
2022-11-02T14:00:09.553Z,101030.66
2022-11-02T14:02:44.274Z,101017.09
2022-11-02T14:05:25.737Z,101016.63
2022-11-02T14:07:55.708Z,101029.94
2022-11-02T14:10:24.198Z,101037.63
2022-11-02T14:12:52.587Z,101035.72
2022-11-02T14:15:53.506Z,101032.53
2022-11-02T14:18:32.002Z,101029.50
2022-11-02T14:21:41.564Z,101043.97
2022-11-02T14:24:50.024Z,101029.81
2022-11-02T14:27:38.255Z,101039.06
2022-11-02T14:30:28.234Z,101033.22
2022-11-02T14:33:05.861Z,101032.56
2022-11-02T14:35:42.172Z,101040.28
2022-11-02T14:38:23.882Z,101041.91
2022-11-02T14:41:03.729Z,101033.69
2022-11-02T14:44:03.067Z,101033.69
2022-11-02T14:46:48.087Z,101037.28
2022-11-02T14:49:21.796Z,101038.75
2022-11-02T14:52:04.170Z,101044.84
2022-11-02T14:54:39.448Z,101047.31
2022-11-02T14:57:17.949Z,101047.94
2022-11-02T14:59:51.580Z,101052.78
2022-11-02T15:02:25.145Z,101042.94
2022-11-02T15:04:57.371Z,101052.69
2022-11-02T15:07:34.762Z,101041.09
2022-11-02T15:10:08.479Z,101052.09
2022-11-02T15:12:39.862Z,101055.03
2022-11-02T15:15:37.892Z,101056.06
2022-11-02T15:18:33.837Z,101059.50
2022-11-02T15:21:28.159Z,101061.09
2022-11-02T15:24:02.764Z,101062.28
2022-11-02T15:26:42.002Z,101062.91
2022-11-02T15:29:21.058Z,101060.00
2022-11-02T15:31:55.691Z,101063.63
2022-11-02T15:34:33.060Z,101068.84
2022-11-02T15:37:02.843Z,101063.25
2022-11-02T15:39:32.158Z,101070.63
2022-11-02T15:42:08.215Z,101062.84
2022-11-02T15:45:14.166Z,101062.22
2022-11-02T15:48:03.412Z,101064.41
2022-11-02T15:50:44.467Z,101061.56
2022-11-02T15:53:45.188Z,101075.53
2022-11-02T15:56:40.424Z,101078.81
2022-11-02T15:59:37.232Z,101088.50
2022-11-02T16:02:25.898Z,101083.84
2022-11-02T16:04:58.052Z,101095.34
2022-11-02T16:07:33.214Z,101086.50
2022-11-02T16:10:20.996Z,101086.84
2022-11-02T16:12:57.712Z,101098.22
2022-11-02T16:15:26.892Z,101091.84
2022-11-02T16:17:55.619Z,101105.13
2022-11-02T16:20:27.902Z,101106.00
2022-11-02T16:22:59.770Z,101103.97
2022-11-02T16:25:38.521Z,101104.72
2022-11-02T16:28:18.066Z,101100.25
2022-11-02T16:30:59.781Z,101117.16
2022-11-02T16:33:32.900Z,101113.25
2022-11-02T16:36:02.922Z,101110.38
2022-11-02T16:38:31.984Z,101103.84
2022-11-02T16:41:02.552Z,101102.75
2022-11-02T16:43:32.120Z,101100.53
2022-11-02T16:46:03.761Z,101107.34
2022-11-02T16:48:33.811Z,101112.53
2022-11-02T16:51:18.501Z,101108.78
2022-11-02T16:53:46.825Z,101118.13
2022-11-02T16:56:27.631Z,101119.38
2022-11-02T16:59:01.562Z,101115.44
2022-11-02T17:01:37.715Z,101117.72
2022-11-02T17:04:18.324Z,101114.03
2022-11-02T17:06:50.752Z,101117.19
2022-11-02T17:09:28.807Z,101122.13
2022-11-02T17:12:00.312Z,101117.12
2022-11-02T17:14:29.801Z,101120.38
2022-11-02T17:17:00.949Z,101125.97
2022-11-02T17:19:47.514Z,101140.66
2022-11-02T17:22:24.821Z,101137.50
2022-11-02T17:25:14.443Z,101134.34
2022-11-02T17:27:43.164Z,101136.28
2022-11-02T17:30:43.065Z,101135.63
2022-11-02T17:33:20.937Z,101136.47
2022-11-02T17:35:50.875Z,101142.16
2022-11-02T17:38:24.001Z,101132.75
2022-11-02T17:40:53.118Z,101128.44
2022-11-02T17:43:21.933Z,101132.25
2022-11-02T17:45:55.998Z,101130.75
2022-11-02T17:48:25.406Z,101135.37
2022-11-02T17:50:54.965Z,101137.50
2022-11-02T17:53:25.371Z,101142.31
2022-11-02T17:55:55.785Z,101140.22
2022-11-02T17:58:24.186Z,101139.44
2022-11-02T18:00:54.471Z,101130.69
2022-11-02T18:03:29.912Z,101131.78
2022-11-02T18:06:00.799Z,101145.47
2022-11-02T18:08:30.895Z,101136.03
2022-11-02T18:10:59.262Z,101139.94
2022-11-02T18:13:27.469Z,101139.31
2022-11-02T18:15:56.084Z,101134.34
2022-11-02T18:18:24.435Z,101139.19
2022-11-02T18:20:53.649Z,101129.06
2022-11-02T18:23:22.245Z,101138.34
2022-11-02T18:25:55.210Z,101127.97
2022-11-02T18:28:27.941Z,101129.84
2022-11-02T18:30:56.294Z,101126.44
2022-11-02T18:33:24.623Z,101120.44
2022-11-02T18:35:53.263Z,101124.28
2022-11-02T18:38:21.721Z,101127.22
2022-11-02T18:40:51.706Z,101114.25
2022-11-02T18:43:20.746Z,101114.34
2022-11-02T18:45:49.256Z,101116.91
2022-11-02T18:48:17.630Z,101115.91
2022-11-02T18:50:46.355Z,101119.34
2022-11-02T18:53:14.733Z,101116.69
2022-11-02T18:55:43.120Z,101118.37
2022-11-02T18:58:13.120Z,101119.34
2022-11-02T19:00:41.600Z,101122.09
2022-11-02T19:03:11.668Z,101118.63
2022-11-02T19:08:48.619Z,101116.56
2022-11-02T19:11:17.370Z,101126.00
2022-11-02T19:13:47.704Z,101122.75
2022-11-02T19:16:15.991Z,101119.84
2022-11-02T19:18:44.675Z,101115.53
2022-11-02T19:21:13.034Z,101117.34
2022-11-02T19:23:41.291Z,101120.06
2022-11-02T19:26:10.419Z,101120.00
2022-11-02T19:28:38.884Z,101113.81
2022-11-02T19:31:09.361Z,101131.56
2022-11-02T19:33:38.942Z,101129.84
2022-11-02T19:36:07.880Z,101126.34
2022-11-02T19:38:38.274Z,101127.19
2022-11-02T19:41:10.506Z,101130.75
2022-11-02T19:43:39.701Z,101130.94
2022-11-02T19:46:13.376Z,101142.59
2022-11-02T19:48:43.001Z,101143.78
2022-11-02T19:51:15.910Z,101146.69
2022-11-02T19:53:50.043Z,101137.25
2022-11-02T19:56:20.749Z,101137.41
2022-11-02T19:58:51.673Z,101136.62
2022-11-02T20:01:23.600Z,101139.44
2022-11-02T20:03:53.155Z,101145.69
2022-11-02T20:06:24.012Z,101148.44
2022-11-02T20:08:53.401Z,101148.66
2022-11-02T20:11:22.409Z,101153.28
2022-11-02T20:13:51.241Z,101148.25
2022-11-02T20:16:21.920Z,101149.31
2022-11-02T20:18:54.337Z,101147.00
2022-11-02T20:21:30.079Z,101139.34
2022-11-02T20:24:01.724Z,101151.28
2022-11-02T20:26:32.301Z,101151.66
2022-11-02T20:29:01.337Z,101147.62
2022-11-02T20:31:33.930Z,101148.72
2022-11-02T20:34:03.230Z,101147.78
2022-11-02T20:36:32.221Z,101154.00
2022-11-02T20:39:03.284Z,101160.25
2022-11-02T20:41:32.514Z,101161.03
2022-11-02T20:44:00.877Z,101171.03
2022-11-02T20:46:41.557Z,101168.31
2022-11-02T20:49:22.263Z,101164.72
2022-11-02T20:51:59.687Z,101162.91
2022-11-02T20:54:29.788Z,101167.28
2022-11-02T20:56:58.549Z,101168.16
2022-11-02T20:59:26.926Z,101178.75
2022-11-02T21:01:57.400Z,101176.03
2022-11-02T21:04:25.986Z,101176.88
2022-11-02T21:06:54.391Z,101170.66
2022-11-02T21:09:23.135Z,101168.87
2022-11-02T21:12:08.728Z,101171.44
2022-11-02T21:14:37.326Z,101168.87
2022-11-02T21:17:08.149Z,101156.38
2022-11-02T21:19:36.888Z,101169.56
2022-11-02T21:22:05.351Z,101166.91
2022-11-02T21:24:33.857Z,101169.72
2022-11-02T21:27:02.504Z,101160.09
2022-11-02T21:29:31.028Z,101161.97
2022-11-02T21:31:59.618Z,101168.31
2022-11-02T21:34:29.762Z,101157.84
2022-11-02T21:37:00.067Z,101155.19
2022-11-02T21:39:28.618Z,101157.00
2022-11-02T21:41:56.976Z,101142.88
2022-11-02T21:44:26.158Z,101142.88
2022-11-02T21:46:54.837Z,101142.91
2022-11-02T21:49:23.454Z,101143.00
2022-11-02T21:51:53.029Z,101136.91
2022-11-02T21:54:21.601Z,101127.16
2022-11-02T21:56:50.430Z,101132.31
2022-11-02T21:59:18.693Z,101120.78
2022-11-02T22:01:49.180Z,101124.34
2022-11-02T22:04:21.743Z,101117.25
2022-11-02T22:06:51.116Z,101124.34
2022-11-02T22:09:20.943Z,101116.38
2022-11-02T22:12:09.256Z,101117.31
2022-11-02T22:14:38.395Z,101115.53
2022-11-02T22:17:16.223Z,101106.56
2022-11-02T22:19:45.501Z,101112.81
2022-11-02T22:22:13.785Z,101107.56
2022-11-02T22:24:45.018Z,101100.63
2022-11-02T22:27:13.843Z,101099.94
2022-11-02T22:29:42.282Z,101102.81
2022-11-02T22:32:10.652Z,101092.53
2022-11-02T22:34:39.752Z,101093.69
2022-11-02T22:37:25.528Z,101100.16
2022-11-02T22:39:55.567Z,101099.50
2022-11-02T22:42:23.783Z,101100.75
2022-11-02T22:44:55.103Z,101095.72
2022-11-02T22:47:23.694Z,101090.72
2022-11-02T22:49:52.138Z,101089.00
2022-11-02T22:52:20.379Z,101090.87
2022-11-02T22:54:48.865Z,101085.72
2022-11-02T22:57:18.794Z,101082.28
2022-11-02T22:59:47.129Z,101070.03
2022-11-02T23:02:16.002Z,101077.03
2022-11-02T23:04:44.314Z,101073.63
2022-11-02T23:07:12.614Z,101080.72
2022-11-02T23:09:41.215Z,101080.72
2022-11-02T23:12:08.551Z,101087.87
2022-11-02T23:14:38.101Z,101084.31
2022-11-02T23:17:06.685Z,101083.53
2022-11-02T23:19:37.293Z,101091.47
2022-11-02T23:22:24.894Z,101085.31
2022-11-02T23:25:15.050Z,101087.16
2022-11-02T23:27:59.169Z,101087.22
2022-11-02T23:30:49.541Z,101091.91
2022-11-02T23:33:19.426Z,101089.53
2022-11-02T23:36:06.017Z,101079.22
2022-11-02T23:38:48.477Z,101088.34
2022-11-02T23:41:17.946Z,101076.31
2022-11-02T23:43:46.547Z,101074.81
2022-11-02T23:46:17.559Z,101069.72
2022-11-02T23:48:49.587Z,101066.28
2022-11-02T23:51:44.011Z,101069.03
2022-11-02T23:54:30.352Z,101071.81
2022-11-02T23:56:58.595Z,101062.97
2022-11-02T23:59:27.182Z,101053.31
